Altamont, New York
Current Conditions -  °F | °C
As of 10:51 PM on Thursday 18 Dec 2014 (Local Time) from KALB Reporting Station
Overcast Overcast  
Wind Chill: -4°   Ceiling: 4800
Heat Index:   Visibility: 10mi
Dew Point: -4°   Wind: 9mph
Humidity: 72%   Direction: 300°WNW
Pressure: 29.95"   Gusts: NA
Location:  42.7°N, 74.03°W
Report Text: KALB 190351Z 30008KT 10SM FEW022 SCT034 OVC048 01/M04 A2995 RMK AO2 SLP146 T00061039
Loading
Personal Weather Stations






























Interactive Weather Map New forecast layout! Learn more

10-Day Weather Forecast

Advertisements
Track Severe Weather on mobile